Time;durP1;ratioP1;P1;durP2;ratioP2;P2;SDS_P1;SDS_P2;PMS_P1;PMS_P2;Temp;Humidity;BMP_temperature;BMP_pressure;BME280_temperature;BME280_humidity;BME280_pressure;Samples;Min_cycle;Max_cycle;Signal;HPM_P1;HPM_P2
2022/08/11 00:02:03;;;;;;;6.03;3.50;;;;;;;20.88;49.39;102023.22;5222847;28;20041;-76
2022/08/11 00:04:36;;;;;;;6.85;3.10;;;;;;;20.91;49.80;102021.34;5225046;28;20120;-78
2022/08/11 00:07:09;;;;;;;6.43;3.90;;;;;;;20.79;50.79;102029.72;5223369;28;20406;-77
2022/08/11 00:09:41;;;;;;;6.30;3.50;;;;;;;20.79;50.46;102019.13;5223509;28;20418;-77
2022/08/11 00:12:15;;;;;;;5.78;3.63;;;;;;;20.82;50.64;102026.09;5223632;28;20045;-78
2022/08/11 00:14:58;;;;;;;8.75;3.50;;;;;;;20.72;50.80;102015.84;5223079;28;20038;-78
2022/08/11 00:17:32;;;;;;;5.60;3.00;;;;;;;20.74;50.83;102015.78;5223073;28;20367;-79
2022/08/11 00:20:10;;;;;;;9.00;3.22;;;;;;;20.71;51.63;102014.09;5222960;28;20436;-79
2022/08/11 00:22:44;;;;;;;8.68;3.33;;;;;;;20.81;51.41;102019.06;5223211;28;20048;-79
2022/08/11 00:25:19;;;;;;;5.80;3.70;;;;;;;20.58;51.31;102023.38;5222960;28;20084;-79
2022/08/11 00:27:50;;;;;;;5.75;3.35;;;;;;;20.52;52.18;102024.44;5222679;28;20485;-79
2022/08/11 00:30:22;;;;;;;8.67;3.40;;;;;;;20.45;51.20;102020.28;5222565;28;20134;-79
2022/08/11 00:32:57;;;;;;;6.03;3.35;;;;;;;20.45;52.01;102022.06;5222523;28;20482;-78
2022/08/11 00:35:30;;;;;;;5.10;3.25;;;;;;;20.39;52.08;102024.00;5222662;28;20041;-77
2022/08/11 00:38:03;;;;;;;4.70;3.22;;;;;;;20.28;52.29;102020.00;5222758;28;20030;-78
2022/08/11 00:40:50;;;;;;;4.75;3.35;;;;;;;20.20;52.83;102021.09;5222012;28;20113;-77
2022/08/11 00:44:00;;;;;;;6.85;3.67;;;;;;;20.28;51.71;102022.63;5221471;28;20069;-76
2022/08/11 00:47:02;;;;;;;11.20;3.75;;;;;;;20.15;52.46;102009.81;5222510;28;20030;-77
2022/08/11 00:50:01;;;;;;;5.90;3.40;;;;;;;20.15;52.33;102022.19;5222506;28;20108;-79
2022/08/11 00:52:50;;;;;;;6.55;3.60;;;;;;;20.18;52.50;102019.44;5222358;28;20034;-76
2022/08/11 00:55:37;;;;;;;4.32;3.35;;;;;;;20.04;52.51;102014.59;5221959;28;20034;-77
2022/08/11 00:58:37;;;;;;;6.75;3.38;;;;;;;19.90;53.21;102019.47;5222279;28;20041;-76
2022/08/11 01:01:14;;;;;;;7.60;4.00;;;;;;;19.90;53.05;102014.19;5221723;28;20038;-76
2022/08/11 01:03:58;;;;;;;6.35;3.60;;;;;;;20.04;52.98;102017.25;5204426;28;20465;-76
2022/08/11 01:06:53;;;;;;;4.78;3.30;;;;;;;20.01;53.16;102014.69;5221755;28;20056;-76
2022/08/11 01:09:43;;;;;;;6.85;3.75;;;;;;;19.83;53.61;102003.78;5221843;28;20057;-76
2022/08/11 01:12:40;;;;;;;5.90;3.97;;;;;;;19.74;54.27;102009.38;5221874;28;20116;-76
2022/08/11 01:16:10;;;;;;;6.20;3.83;;;;;;;19.91;52.60;102010.63;5221673;28;20514;-76
2022/08/11 01:19:35;;;;;;;9.93;3.53;;;;;;;19.83;52.87;102013.50;5205552;28;20489;-77
2022/08/11 01:22:51;;;;;;;7.63;3.67;;;;;;;19.81;53.60;102010.91;5204682;28;20125;-76
2022/08/11 01:25:49;;;;;;;6.38;3.53;;;;;;;19.60;53.59;102011.56;5210552;28;20038;-76
2022/08/11 01:28:46;;;;;;;5.32;3.40;;;;;;;19.65;54.22;102023.72;5221317;28;20053;-76
2022/08/11 01:31:35;;;;;;;4.50;3.13;;;;;;;19.55;54.66;102019.66;5221136;28;20026;-76
2022/08/11 01:34:23;;;;;;;5.15;3.33;;;;;;;19.38;55.49;102016.66;5221063;28;20034;-76
2022/08/11 01:37:18;;;;;;;6.97;3.50;;;;;;;19.31;54.80;102016.81;5221662;28;20029;-76
2022/08/11 01:40:31;;;;;;;7.28;3.92;;;;;;;19.44;54.03;102024.41;5221031;28;20053;-77
2022/08/11 01:46:34;;;;;;;6.32;4.45;;;;;;;19.26;55.98;102023.19;5220889;28;20260;-76
2022/08/11 01:49:19;;;;;;;6.70;3.58;;;;;;;19.09;55.68;102027.19;5221135;28;20125;-76
2022/08/11 01:52:07;;;;;;;7.60;3.53;;;;;;;19.23;55.09;102026.75;5221106;28;20062;-78
2022/08/11 01:54:53;;;;;;;9.07;3.50;;;;;;;19.05;55.59;102033.44;5202925;28;20034;-77
2022/08/11 01:57:41;;;;;;;7.15;4.93;;;;;;;19.18;56.08;102031.31;5221097;28;20045;-77
2022/08/11 02:00:19;;;;;;;5.97;3.70;;;;;;;18.88;56.48;102031.28;5220484;28;20034;-77
2022/08/11 02:03:15;;;;;;;7.50;3.40;;;;;;;19.12;55.56;102028.84;5220673;28;20120;-76
2022/08/11 02:06:53;;;;;;;6.30;4.20;;;;;;;18.90;58.22;102031.22;5220653;28;20026;-76
2022/08/11 02:09:06;;;;;;;8.25;3.97;;;;;;;18.86;57.45;102025.16;5220365;28;20037;-77
2022/08/11 02:11:39;;;;;;;5.63;3.80;;;;;;;18.98;57.38;102034.53;5220853;28;20037;-77
2022/08/11 02:14:19;;;;;;;4.93;3.50;;;;;;;18.77;57.25;102030.66;5220815;28;20037;-77
2022/08/11 02:16:56;;;;;;;7.50;4.00;;;;;;;18.67;57.66;102045.03;5220811;28;20030;-77
2022/08/11 02:26:06;;;;;;;8.45;3.97;;;;;;;18.71;57.69;102036.13;5220785;28;20037;-77
2022/08/11 02:28:58;;;;;;;7.93;5.60;;;;;;;18.54;58.37;102033.94;5220400;28;20099;-77
2022/08/11 02:34:58;;;;;;;6.97;3.80;;;;;;;18.45;58.13;102027.13;5220554;28;20463;-77
2022/08/11 02:37:29;;;;;;;5.90;4.05;;;;;;;18.32;58.17;102026.59;5220404;28;20058;-77
2022/08/11 02:40:09;;;;;;;6.97;4.37;;;;;;;18.27;59.32;102020.53;5220296;28;20061;-77
2022/08/11 02:42:43;;;;;;;10.20;3.90;;;;;;;18.44;59.37;102021.88;5221150;28;20046;-77
2022/08/11 02:45:35;;;;;;;6.18;3.88;;;;;;;18.29;59.14;102021.38;5220319;28;20482;-78
2022/08/11 02:51:38;;;;;;;7.93;4.20;;;;;;;18.09;59.86;102016.56;5220732;28;20033;-77
2022/08/11 02:54:43;;;;;;;7.72;4.20;;;;;;;18.15;59.09;102015.56;5220070;28;20482;-77
2022/08/11 02:57:32;;;;;;;10.20;4.07;;;;;;;17.94;60.01;102015.19;5219954;28;20109;-77
2022/08/11 03:00:13;;;;;;;9.27;4.05;;;;;;;17.89;59.66;102011.81;5220139;28;20458;-77
2022/08/11 03:02:53;;;;;;;9.93;4.00;;;;;;;17.86;59.51;102015.34;5219915;28;20072;-76
2022/08/11 03:05:43;;;;;;;8.18;4.35;;;;;;;17.74;59.82;102015.66;5219880;28;20025;-77
2022/08/11 03:08:32;;;;;;;7.32;4.00;;;;;;;17.66;59.96;102012.28;5222989;28;20487;-77
2022/08/11 03:17:32;;;;;;;5.95;4.43;;;;;;;17.60;60.66;102012.44;5224406;28;20249;-77
2022/08/11 03:20:22;;;;;;;7.18;4.28;;;;;;;17.75;60.83;102014.72;5223797;28;20034;-77
2022/08/11 03:22:54;;;;;;;6.53;4.20;;;;;;;17.56;61.08;102016.03;5224151;28;20474;-77
2022/08/11 03:25:48;;;;;;;7.33;4.50;;;;;;;17.56;60.77;102010.78;5223739;28;20184;-77
2022/08/11 03:29:10;;;;;;;10.20;4.47;;;;;;;17.66;60.57;102018.44;5223884;28;20502;-77
2022/08/11 03:31:55;;;;;;;11.05;4.25;;;;;;;17.54;61.90;102009.94;5206211;28;20088;-77
2022/08/11 03:34:30;;;;;;;9.07;4.40;;;;;;;17.39;62.84;102019.94;5223528;28;20113;-76
2022/08/11 03:37:49;;;;;;;8.80;4.78;;;;;;;17.40;61.87;102013.72;5223714;28;20054;-76
2022/08/11 03:43:32;;;;;;;5.88;4.20;;;;;;;17.23;62.38;102018.53;5223959;28;20046;-77
2022/08/11 03:46:15;;;;;;;10.07;4.65;;;;;;;17.36;62.66;102017.34;5222942;28;20116;-77
2022/08/11 03:49:41;;;;;;;12.45;4.80;;;;;;;17.44;62.42;102011.91;5206853;28;20026;-77
2022/08/11 03:52:16;;;;;;;5.90;4.22;;;;;;;17.27;63.61;102015.75;5160031;28;20070;-77
2022/08/11 03:55:03;;;;;;;8.93;5.47;;;;;;;17.33;63.22;102013.91;5199282;28;20478;-77
2022/08/11 03:58:04;;;;;;;6.97;4.82;;;;;;;17.18;63.12;102018.63;5224212;28;20469;-76
2022/08/11 04:00:57;;;;;;;5.47;4.97;;;;;;;17.12;64.06;102011.69;5186684;28;20434;-76
2022/08/11 04:04:14;;;;;;;6.95;5.10;;;;;;;17.20;62.64;102014.16;5223213;28;20040;-77
2022/08/11 04:07:06;;;;;;;7.57;4.57;;;;;;;16.97;64.45;102013.75;5223084;28;20069;-78
2022/08/11 04:09:59;;;;;;;6.80;4.90;;;;;;;17.06;63.17;102016.22;5222812;28;20176;-78
2022/08/11 04:12:43;;;;;;;9.55;4.95;;;;;;;16.94;63.99;102012.06;5222431;28;20026;-78
2022/08/11 04:15:59;;;;;;;6.90;5.45;;;;;;;16.95;64.24;102009.41;5222602;28;20112;-77
2022/08/11 04:18:33;;;;;;;6.78;5.00;;;;;;;17.09;65.04;102008.25;5222452;28;20132;-78
2022/08/11 04:21:50;;;;;;;7.47;5.15;;;;;;;16.95;64.24;102009.41;5222711;28;20129;-78
2022/08/11 04:24:40;;;;;;;7.63;5.03;;;;;;;16.89;64.46;102004.25;5222220;28;20036;-78
2022/08/11 04:27:38;;;;;;;8.02;5.78;;;;;;;16.76;64.95;102008.00;5221902;28;20021;-76
2022/08/11 04:30:16;;;;;;;6.80;5.22;;;;;;;16.75;64.81;102001.00;5221894;28;20040;-77
2022/08/11 04:32:50;;;;;;;6.70;5.20;;;;;;;16.68;65.16;102009.88;5222164;28;20034;-76
2022/08/11 04:35:49;;;;;;;7.05;5.05;;;;;;;16.62;65.38;102013.53;5204734;28;20375;-76
2022/08/11 04:38:51;;;;;;;10.90;5.60;;;;;;;16.62;65.10;102010.88;5222453;28;20044;-77
2022/08/11 04:45:09;;;;;;;8.95;5.18;;;;;;;16.59;64.98;102006.53;5222345;28;20073;-77
2022/08/11 05:03:09;;;;;;;9.68;7.07;;;;;;;16.63;67.36;102022.28;5221585;28;20443;-76
2022/08/11 05:05:52;;;;;;;10.10;5.95;;;;;;;16.63;67.61;102012.63;5204110;28;20033;-76
2022/08/11 05:08:35;;;;;;;8.23;5.97;;;;;;;16.53;66.51;102017.16;5221551;28;20033;-77
2022/08/11 05:11:07;;;;;;;8.07;5.65;;;;;;;16.58;68.09;102015.34;5221749;28;20446;-77
2022/08/11 05:34:58;;;;;;;11.80;6.55;;;;;;;16.97;67.95;102022.56;5221601;28;20034;-77
2022/08/11 05:37:29;;;;;;;;;;;;;;;17.12;65.57;102024.88;5213261;28;20034;-76
2022/08/11 05:57:36;;;;;;;7.25;6.55;;;;;;;17.39;66.29;102025.19;5221180;28;20038;-76
2022/08/11 06:00:09;;;;;;;12.38;6.47;;;;;;;17.48;67.53;102025.00;5220972;28;20033;-76
2022/08/11 06:02:41;;;;;;;;;;;;;;;17.69;64.90;102022.75;5187565;28;20479;-76
2022/08/11 06:05:14;;;;;;;9.98;7.05;;;;;;;17.65;66.13;102027.25;5221273;28;20350;-77
2022/08/11 06:07:53;;;;;;;7.05;5.50;;;;;;;17.79;66.89;102034.84;5202654;28;20037;-77
2022/08/11 06:10:32;;;;;;;7.97;5.43;;;;;;;17.83;67.51;102028.59;5220298;28;20030;-77
2022/08/11 06:13:05;;;;;;;8.82;5.72;;;;;;;17.97;65.98;102033.59;5220605;28;20018;-77
2022/08/11 06:15:46;;;;;;;9.90;5.50;;;;;;;18.11;65.76;102032.38;5220396;28;20100;-77
2022/08/11 06:18:18;;;;;;;11.82;5.45;;;;;;;18.13;66.33;102030.56;5220260;28;20030;-78
2022/08/11 06:20:55;;;;;;;10.60;5.43;;;;;;;18.21;65.96;102036.53;5202794;28;20459;-78
2022/08/11 06:23:31;;;;;;;9.18;5.32;;;;;;;18.35;65.06;102033.53;5221391;28;20025;-78
2022/08/11 06:26:08;;;;;;;9.65;5.75;;;;;;;18.43;63.11;102028.91;5220938;28;20117;-78
2022/08/11 06:28:45;;;;;;;7.78;5.18;;;;;;;18.52;64.38;102039.25;5203198;28;20109;-79
2022/08/11 06:31:19;;;;;;;6.97;5.38;;;;;;;18.59;62.50;102032.03;5220321;28;20029;-77
2022/08/11 06:33:58;;;;;;;9.80;5.75;;;;;;;18.75;64.45;102033.34;5220230;28;20351;-77
2022/08/11 06:36:54;;;;;;;12.05;6.07;;;;;;;18.88;64.04;102040.97;5202360;28;20084;-78
2022/08/11 06:39:42;;;;;;;8.10;5.05;;;;;;;18.99;65.01;102035.41;5220252;28;20383;-77
2022/08/11 06:42:28;;;;;;;12.02;5.10;;;;;;;19.08;61.66;102035.16;5222271;28;20085;-77
2022/08/11 06:45:07;;;;;;;8.52;4.57;;;;;;;19.18;63.39;102043.69;5224711;28;20041;-77
2022/08/11 06:47:46;;;;;;;10.98;4.50;;;;;;;19.30;63.13;102033.63;5206903;28;20029;-76
2022/08/11 06:53:11;;;;;;;10.48;4.60;;;;;;;19.56;59.60;102031.97;5224621;28;20407;-77
2022/08/11 07:02:03;;;;;;;9.70;4.60;;;;;;;19.98;60.40;102047.44;5224466;28;20120;-76
2022/08/11 07:05:09;;;;;;;11.70;4.75;;;;;;;20.09;60.19;102036.47;5224282;28;20099;-76
2022/08/11 07:16:52;;;;;;;12.52;5.18;;;;;;;20.52;56.48;102044.78;5224961;28;20026;-77
2022/08/11 07:31:03;;;;;;;12.23;4.47;;;;;;;21.29;56.03;102039.38;5223686;28;20042;-77
2022/08/11 07:34:21;;;;;;;8.77;3.92;;;;;;;21.38;56.69;102040.81;5223719;28;20018;-78
2022/08/11 07:36:59;;;;;;;5.78;3.88;;;;;;;21.42;55.37;102032.69;5213665;28;20054;-77
2022/08/11 07:39:32;;;;;;;6.30;3.85;;;;;;;21.50;59.42;102032.41;5223472;28;20033;-78
2022/08/11 07:42:07;;;;;;;8.27;3.95;;;;;;;21.72;52.83;102032.44;5201361;28;20125;-77
2022/08/11 07:53:17;;;;;;;11.95;4.05;;;;;;;22.14;53.75;102036.06;5202502;28;20050;-78
2022/08/11 07:55:52;;;;;;;8.95;3.85;;;;;;;22.32;49.79;102042.44;5202736;28;20364;-77
2022/08/11 08:18:27;;;;;;;8.95;3.47;;;;;;;22.86;49.27;102040.97;5201940;28;20050;-78
2022/08/11 08:21:10;;;;;;;;;;;;;;;23.06;49.39;102039.19;5202009;28;20034;-78
2022/08/11 08:23:43;;;;;;;;;;;;;;;23.15;48.60;102036.13;5203244;28;19914;-78
2022/08/11 08:32:07;;;;;;;8.50;3.80;;;;;;;23.41;49.19;102037.59;5181640;28;20050;-78
2022/08/11 08:34:42;;;;;;;8.90;3.95;;;;;;;23.53;47.18;102033.47;5205300;28;20034;-77
2022/08/11 08:37:17;;;;;;;7.43;3.70;;;;;;;23.60;47.41;102042.03;5205492;28;20123;-77
2022/08/11 08:39:49;;;;;;;7.40;4.20;;;;;;;23.68;47.19;102042.53;5202374;28;20030;-78
2022/08/11 08:42:31;;;;;;;10.18;4.32;;;;;;;23.74;46.83;102036.91;5218029;28;20050;-78
2022/08/11 08:45:06;;;;;;;8.07;3.83;;;;;;;23.80;49.30;102033.94;5222395;28;20026;-77
2022/08/11 08:47:44;;;;;;;8.30;3.95;;;;;;;23.94;48.19;102037.75;5222422;28;20113;-78
2022/08/11 08:50:21;;;;;;;9.48;3.78;;;;;;;23.98;45.94;102039.34;5222479;28;20456;-79
2022/08/11 08:53:02;;;;;;;10.65;4.10;;;;;;;23.87;46.79;102034.53;5222417;28;20122;-77
2022/08/11 08:55:34;;;;;;;8.23;3.78;;;;;;;24.02;44.17;102038.25;5222403;28;20474;-77
2022/08/11 08:58:06;;;;;;;7.57;4.13;;;;;;;24.00;46.07;102025.00;5222101;28;20076;-77
2022/08/11 09:00:43;;;;;;;11.65;3.90;;;;;;;24.30;45.03;102026.22;5222369;28;20085;-79
2022/08/11 09:03:15;;;;;;;6.80;3.90;;;;;;;24.21;46.74;102028.41;5222373;28;20037;-78
2022/08/11 09:05:47;;;;;;;;;;;;;;;24.47;46.30;102033.31;5222591;28;20030;-78
2022/08/11 09:08:20;;;;;;;7.33;3.70;;;;;;;24.63;46.20;102028.94;5223368;28;20012;-78
2022/08/11 09:13:45;;;;;;;10.18;3.63;;;;;;;25.08;43.21;102032.78;5227326;28;20387;-78
2022/08/11 09:16:18;;;;;;;7.22;3.83;;;;;;;25.15;43.14;102030.66;5211489;28;20517;-78
2022/08/11 09:18:51;;;;;;;12.05;4.22;;;;;;;25.15;42.23;102030.66;5236411;28;20033;-78
2022/08/11 09:21:23;;;;;;;9.23;3.33;;;;;;;25.24;42.94;102023.94;5233836;28;20058;-78
2022/08/11 09:27:01;;;;;;;5.72;3.15;;;;;;;25.37;45.44;102016.13;5221819;28;20065;-79
2022/08/11 09:29:34;;;;;;;9.60;3.83;;;;;;;25.43;39.40;102021.13;5206792;28;20485;-79
2022/08/11 09:32:07;;;;;;;9.43;3.90;;;;;;;25.59;43.65;102015.78;5221789;28;20037;-79
2022/08/11 09:34:38;;;;;;;5.93;3.28;;;;;;;25.81;38.48;102016.28;5203934;28;20525;-80
2022/08/11 09:45:50;;;;;;;15.73;3.22;;;;;;;27.41;38.88;102008.41;5222170;28;20116;-80
2022/08/11 09:48:25;;;;;;;6.45;3.60;;;;;;;27.70;39.45;102004.78;5204396;28;20034;-80
2022/08/11 09:50:59;;;;;;;9.65;3.47;;;;;;;28.15;35.77;102003.53;5222246;28;20038;-81
2022/08/11 09:53:34;;;;;;;6.78;2.95;;;;;;;28.19;40.31;102002.38;5221548;28;20458;-79
2022/08/11 09:59:08;;;;;;;7.25;3.25;;;;;;;28.70;35.16;101989.97;5222001;28;20116;-79
2022/08/11 10:01:44;;;;;;;5.65;3.38;;;;;;;28.71;33.64;101995.22;5223290;28;20057;-81
2022/08/11 10:04:21;;;;;;;6.90;3.13;;;;;;;28.95;33.13;102001.63;5228881;28;20057;-80
2022/08/11 10:07:09;;;;;;;6.45;2.85;;;;;;;29.24;38.76;102002.25;5219211;28;20037;-77
2022/08/11 10:09:59;;;;;;;7.22;3.03;;;;;;;29.43;31.38;101991.84;5231122;28;20029;-79
2022/08/11 10:12:34;;;;;;;10.55;3.58;;;;;;;29.32;31.60;101983.75;5222387;28;20060;-81
2022/08/11 10:21:22;;;;;;;6.05;2.85;;;;;;;29.42;32.75;101982.06;5221313;28;20038;-79
2022/08/11 10:26:53;;;;;;;7.47;3.17;;;;;;;29.87;35.05;101991.38;5221522;28;20033;-79
2022/08/11 10:35:20;;;;;;;6.55;2.90;;;;;;;30.52;31.98;101982.72;5221502;28;20034;-80
2022/08/11 10:37:53;;;;;;;9.13;3.25;;;;;;;31.04;32.61;101982.25;5220920;28;20429;-79
2022/08/11 10:40:24;;;;;;;6.03;3.22;;;;;;;31.30;31.53;101979.25;5220511;28;20119;-79
2022/08/11 10:43:02;;;;;;;7.25;3.22;;;;;;;31.75;30.58;101979.13;5220749;28;20153;-78
2022/08/11 10:48:35;;;;;;;8.32;3.35;;;;;;;32.73;30.07;101977.91;5221081;28;20049;-80
2022/08/11 10:51:13;;;;;;;7.72;3.13;;;;;;;33.06;28.63;101970.50;5225205;28;20026;-79
2022/08/11 10:59:33;;;;;;;4.68;3.22;;;;;;;35.00;26.92;101973.97;5220627;28;20038;-80
2022/08/11 11:02:04;;;;;;;8.82;3.58;;;;;;;35.45;22.42;101961.38;5220254;28;20056;-80
2022/08/11 11:04:55;;;;;;;5.95;3.50;;;;;;;35.91;25.23;101969.44;5220142;28;20038;-80
2022/08/11 11:07:51;;;;;;;8.10;2.92;;;;;;;36.37;26.03;101963.81;5220666;28;20116;-80
2022/08/11 11:10:23;;;;;;;7.03;3.22;;;;;;;36.51;23.92;101958.63;5220479;28;20112;-80
2022/08/11 11:18:37;;;;;;;4.78;2.45;;;;;;;37.04;23.58;101951.19;5220349;28;20050;-79
2022/08/11 11:21:13;;;;;;;6.18;2.80;;;;;;;37.21;22.29;101954.00;5220239;28;20121;-78
2022/08/11 11:24:13;;;;;;;7.78;3.58;;;;;;;37.83;21.16;101950.78;5220440;28;20037;-79
2022/08/11 11:27:13;;;;;;;9.95;3.80;;;;;;;38.07;19.42;101944.44;5220072;28;20034;-80
2022/08/11 11:29:58;;;;;;;8.07;3.13;;;;;;;37.88;19.87;101950.28;5223783;28;20129;-80
2022/08/11 11:32:54;;;;;;;5.03;2.50;;;;;;;38.29;20.55;101952.94;5223858;28;20022;-80
2022/08/11 11:35:43;;;;;;;6.65;3.28;;;;;;;37.41;17.76;101936.31;5224051;28;20073;-84
2022/08/11 11:38:16;;;;;;;6.72;3.33;;;;;;;37.52;21.12;101929.69;5223872;28;20037;-81
2022/08/11 11:41:23;;;;;;;4.25;3.13;;;;;;;37.61;19.00;101935.97;5223605;28;20062;-80
2022/08/11 11:43:40;;;;;;;5.65;2.70;;;;;;;38.54;22.97;101939.22;5223567;28;20194;-80
2022/08/11 11:46:12;;;;;;;5.85;3.42;;;;;;;38.80;18.99;101938.94;5206593;28;20434;-80
2022/08/11 11:48:44;;;;;;;5.53;2.50;;;;;;;39.02;22.94;101940.84;5224421;28;20362;-81
2022/08/11 11:51:16;;;;;;;4.82;3.20;;;;;;;39.29;19.22;101922.28;5223562;28;20113;-81
2022/08/11 11:53:50;;;;;;;9.48;3.35;;;;;;;39.31;17.75;101920.22;5223380;28;20045;-82
2022/08/11 11:56:24;;;;;;;6.78;3.20;;;;;;;39.93;18.28;101926.50;5223510;28;20378;-80
2022/08/11 12:01:47;;;;;;;8.82;3.30;;;;;;;40.45;17.54;101916.56;5223650;28;20037;-81
2022/08/11 12:04:19;;;;;;;3.88;2.80;;;;;;;40.36;15.36;101914.94;5223391;28;20376;-81
2022/08/11 12:08:08;;;;;;;9.65;3.45;;;;;;;40.72;19.95;101917.75;5205701;28;20054;-80
2022/08/11 12:09:46;;;;;;;9.07;3.78;;;;;;;40.66;15.60;101918.50;5223503;28;20046;-81
2022/08/11 12:15:09;;;;;;;8.95;3.60;;;;;;;41.45;16.70;101905.88;5229235;28;20141;-81
2022/08/11 12:17:40;;;;;;;7.32;3.40;;;;;;;41.60;15.53;101905.78;5205978;28;20030;-80
2022/08/11 12:20:18;;;;;;;9.30;3.80;;;;;;;41.26;16.25;101916.41;5223298;28;20029;-80
2022/08/11 12:28:32;;;;;;;;;;;;;;;44.50;14.68;101900.34;5224194;28;20486;-82
2022/08/11 12:31:04;;;;;;;8.95;4.15;;;;;;;42.62;17.29;101898.78;5223047;28;20001;-81
2022/08/11 12:33:36;;;;;;;6.30;3.83;;;;;;;42.84;14.73;101896.72;5222843;28;20116;-81
2022/08/11 12:36:15;;;;;;;5.68;3.70;;;;;;;42.82;13.50;101885.13;5222749;28;20422;-82
2022/08/11 12:38:49;;;;;;;5.88;3.58;;;;;;;42.83;15.72;101875.88;5223166;28;20042;-81
2022/08/11 12:47:03;;;;;;;3.95;3.50;;;;;;;43.24;15.71;101874.00;5208575;28;20121;-81
2022/08/11 12:52:34;;;;;;;7.60;3.88;;;;;;;43.69;17.45;101868.72;5223894;28;20124;-81
2022/08/11 12:55:10;;;;;;;4.93;3.55;;;;;;;43.67;14.90;101873.59;5225195;28;20041;-83
2022/08/11 13:06:18;;;;;;;7.03;3.50;;;;;;;44.53;13.33;101863.34;5227133;28;20038;-82
2022/08/11 13:08:50;;;;;;;6.40;3.88;;;;;;;44.43;13.15;101850.09;5225737;28;20098;-82
2022/08/11 13:14:12;;;;;;;6.33;3.83;;;;;;;45.31;12.80;101840.13;5222448;28;20050;-82
2022/08/11 13:19:35;;;;;;;5.60;4.28;;;;;;;45.88;13.35;101837.25;5222751;28;20411;-81
2022/08/11 13:22:07;;;;;;;8.85;3.60;;;;;;;45.95;13.06;101834.41;5222419;28;20041;-81
2022/08/11 13:24:39;;;;;;;9.00;3.95;;;;;;;45.84;12.41;101828.59;5222386;28;20053;-81
2022/08/11 13:27:14;;;;;;;11.63;4.85;;;;;;;45.77;12.17;101829.75;5222033;28;20088;-82
2022/08/11 13:29:47;;;;;;;9.18;3.88;;;;;;;44.71;13.75;101821.38;5221899;28;20458;-82
2022/08/11 13:32:20;;;;;;;5.90;4.20;;;;;;;44.79;15.76;101823.84;5222113;28;20025;-82
2022/08/11 13:34:52;;;;;;;4.95;4.00;;;;;;;45.32;13.07;101819.81;5221842;28;20378;-83
2022/08/11 13:37:24;;;;;;;5.82;4.35;;;;;;;45.09;12.70;101823.22;5221872;28;20030;-80
2022/08/11 13:39:57;;;;;;;5.20;4.10;;;;;;;45.94;11.02;101825.31;5222010;28;20034;-80
2022/08/11 13:42:29;;;;;;;6.68;4.05;;;;;;;46.24;11.54;101821.75;5221313;28;20072;-81
2022/08/11 13:45:01;;;;;;;5.07;4.22;;;;;;;46.02;12.96;101816.72;5204757;28;20037;-80
2022/08/11 13:47:33;;;;;;;8.20;4.07;;;;;;;46.67;10.00;101819.88;5222121;28;20046;-80
2022/08/11 13:50:07;;;;;;;6.45;4.72;;;;;;;46.34;12.48;101819.28;5221911;28;20041;-81
2022/08/11 13:52:40;;;;;;;8.00;5.13;;;;;;;46.54;11.77;101807.13;5221164;28;20096;-81
2022/08/11 13:55:21;;;;;;;7.07;4.13;;;;;;;47.16;11.94;101805.88;5226086;28;20030;-81
2022/08/11 13:57:53;;;;;;;8.60;4.20;;;;;;;47.45;10.71;101809.59;5236607;28;20026;-81
2022/08/11 14:00:30;;;;;;;6.88;4.47;;;;;;;46.74;10.81;101810.41;5222826;28;20100;-82
2022/08/11 14:03:04;;;;;;;4.30;3.88;;;;;;;47.04;11.46;101806.72;5221909;28;20119;-82
2022/08/11 14:05:39;;;;;;;7.65;4.03;;;;;;;46.98;12.55;101802.16;5221371;28;20038;-81
2022/08/11 14:08:17;;;;;;;5.57;4.18;;;;;;;47.26;12.21;101795.91;5222250;28;20040;-82
2022/08/11 14:13:36;;;;;;;6.38;4.57;;;;;;;47.21;11.05;101793.06;5220988;28;20032;-82
2022/08/11 14:13:44;;;;;;;9.02;4.63;;;;;;;47.70;12.50;101791.94;5223443;28;20045;-82
2022/08/11 14:16:27;;;;;;;6.15;4.70;;;;;;;47.32;11.18;101782.25;5237260;28;20065;-81
2022/08/11 14:19:10;;;;;;;11.32;4.78;;;;;;;47.56;12.33;101780.28;5231094;28;20026;-81
2022/08/11 14:24:37;;;;;;;7.97;4.60;;;;;;;48.15;10.01;101783.72;5224074;28;20037;-82
2022/08/11 14:27:11;;;;;;;9.50;5.20;;;;;;;48.00;13.40;101778.72;5222331;28;20034;-82
2022/08/11 14:29:45;;;;;;;6.72;4.53;;;;;;;48.24;9.74;101791.59;5221416;28;20057;-82
2022/08/11 14:32:21;;;;;;;11.00;4.82;;;;;;;48.05;11.31;101766.97;5221145;28;20030;-82
2022/08/11 14:34:52;;;;;;;7.18;4.63;;;;;;;48.43;11.67;101773.72;5220949;28;20030;-82
2022/08/11 14:37:26;;;;;;;7.50;5.30;;;;;;;48.35;13.10;101787.94;5221764;28;20026;-81
2022/08/11 14:40:00;;;;;;;5.95;4.70;;;;;;;48.07;13.27;101786.06;5221012;28;20116;-82
2022/08/11 14:48:12;;;;;;;6.03;4.93;;;;;;;46.96;11.83;101757.41;5221173;28;20046;-81
2022/08/11 14:50:45;;;;;;;9.60;4.75;;;;;;;46.56;11.39;101761.69;5220274;28;20327;-82
2022/08/11 14:53:20;;;;;;;6.47;4.60;;;;;;;46.76;10.90;101769.63;5220841;28;20084;-81
2022/08/11 14:58:42;;;;;;;8.75;4.90;;;;;;;46.20;11.46;101760.72;5221405;28;20050;-81
2022/08/11 15:04:04;;;;;;;6.57;4.60;;;;;;;46.68;12.48;101755.31;5223856;28;20124;-82
2022/08/11 15:06:36;;;;;;;8.77;4.70;;;;;;;46.37;11.63;101755.41;5224958;28;20124;-81
2022/08/11 15:09:08;;;;;;;5.78;4.28;;;;;;;46.89;11.82;101745.66;5225346;28;20450;-83
2022/08/11 15:17:21;;;;;;;5.53;3.90;;;;;;;47.83;10.46;101741.91;5224598;28;20034;-82
2022/08/11 15:25:35;;;;;;;7.20;4.57;;;;;;;46.87;13.27;101742.25;5225111;28;19996;-81
2022/08/11 15:45:54;;;;;;;9.85;4.72;;;;;;;48.09;11.58;101721.13;5223931;28;20054;-81
2022/08/11 15:48:31;;;;;;;6.18;4.30;;;;;;;47.76;10.53;101722.72;5223884;28;20036;-81
2022/08/11 15:51:23;;;;;;;6.05;4.22;;;;;;;48.70;11.73;101717.72;5205713;28;20030;-81
2022/08/11 15:53:58;;;;;;;7.38;4.10;;;;;;;48.32;10.59;101717.41;5224219;28;20025;-82
2022/08/11 15:56:31;;;;;;;4.47;4.03;;;;;;;48.22;11.92;101717.19;5223471;28;20034;-82
2022/08/11 16:04:10;;;;;;;5.32;4.05;;;;;;;48.00;9.26;101709.63;5200377;28;20356;-84
2022/08/11 16:05:04;;;;;;;6.55;4.30;;;;;;;46.97;9.49;101711.34;5223156;28;20042;-82
2022/08/11 16:07:37;;;;;;;7.43;4.05;;;;;;;47.11;10.12;101705.34;5224363;28;20026;-81
2022/08/11 16:10:18;;;;;;;5.30;4.32;;;;;;;46.97;10.78;101695.66;5223855;28;20030;-82
2022/08/11 16:18:58;;;;;;;7.22;5.28;;;;;;;47.46;9.61;101698.06;5231574;28;20034;-82
2022/08/11 16:21:33;;;;;;;6.57;4.10;;;;;;;46.39;11.93;101698.09;5224969;28;20068;-81
2022/08/11 16:24:08;;;;;;;6.63;4.18;;;;;;;45.85;11.92;101698.03;5223856;28;20127;-82
2022/08/11 16:26:42;;;;;;;9.57;4.40;;;;;;;46.10;14.25;101683.28;5223528;28;20030;-82
2022/08/11 16:29:15;;;;;;;6.82;3.80;;;;;;;46.15;10.31;101691.72;5223858;28;20077;-82
2022/08/11 16:32:15;;;;;;;10.05;3.95;;;;;;;46.09;11.23;101686.28;5223545;28;20053;-82
2022/08/11 16:40:28;;;;;;;10.65;4.95;;;;;;;46.10;12.92;101679.66;5208995;28;20041;-82
2022/08/11 16:48:47;;;;;;;8.05;3.88;;;;;;;45.27;11.87;101676.53;5223746;28;20038;-82
2022/08/11 16:51:19;;;;;;;5.13;3.95;;;;;;;45.49;14.05;101679.69;5223336;28;20022;-82
2022/08/11 16:53:51;;;;;;;5.90;5.00;;;;;;;45.69;11.94;101668.38;5224238;28;20113;-82
2022/08/11 16:56:46;;;;;;;13.88;4.32;;;;;;;46.26;12.40;101662.50;5209354;28;20129;-81
2022/08/11 16:59:34;;;;;;;7.35;4.70;;;;;;;45.82;13.61;101659.13;5229060;28;20026;-81
2022/08/11 17:02:11;;;;;;;6.38;4.18;;;;;;;44.79;11.51;101667.06;5230118;28;20355;-81
2022/08/11 17:13:41;;;;;;;;;;;;;;;46.26;11.82;101653.38;5210522;28;20494;-74
2022/08/11 17:16:19;;;;;;;9.63;5.55;;;;;;;44.07;12.89;101653.72;5204669;28;19917;-75
2022/08/11 17:18:57;;;;;;;5.80;3.80;;;;;;;44.12;13.49;101659.38;5204514;28;20045;-73
2022/08/11 17:21:35;;;;;;;7.15;3.97;;;;;;;43.51;12.59;101664.34;5221906;28;20370;-74
2022/08/11 17:24:13;;;;;;;6.53;3.97;;;;;;;43.41;13.87;101661.25;5221757;28;20033;-74
2022/08/11 17:26:56;;;;;;;7.47;5.20;;;;;;;43.16;13.34;101656.44;5220959;28;20155;-75
2022/08/11 17:29:38;;;;;;;6.93;3.70;;;;;;;43.33;16.22;101654.06;5221607;28;20058;-74
2022/08/11 17:35:32;;;;;;;4.70;3.92;;;;;;;43.12;14.60;101652.44;5221197;28;20383;-76